createdAt,value
2024-02-15T00:00:12.508Z,4.60
2024-02-15T00:06:34.501Z,4.50
2024-02-15T00:09:37.533Z,4.50
2024-02-15T00:12:39.977Z,4.40
2024-02-15T00:15:43.011Z,4.40
2024-02-15T00:18:46.187Z,4.40
2024-02-15T00:21:49.068Z,4.40
2024-02-15T00:24:52.010Z,4.50
2024-02-15T00:27:54.567Z,4.50
2024-02-15T00:30:57.057Z,4.60
2024-02-15T00:34:00.865Z,4.60
2024-02-15T00:37:03.867Z,4.60
2024-02-15T00:40:06.830Z,4.60
2024-02-15T00:43:08.889Z,4.60
2024-02-15T00:46:11.367Z,4.60
2024-02-15T00:49:13.767Z,4.60
2024-02-15T00:52:16.241Z,4.50
2024-02-15T00:55:18.387Z,4.50
2024-02-15T00:58:22.938Z,4.50
2024-02-15T01:01:25.382Z,4.50
2024-02-15T01:04:27.585Z,4.40
2024-02-15T01:07:30.057Z,4.40
2024-02-15T01:10:32.470Z,4.30
2024-02-15T01:13:34.742Z,4.30
2024-02-15T01:16:37.948Z,4.30
2024-02-15T01:19:40.402Z,4.30
2024-02-15T01:22:42.741Z,4.30
2024-02-15T01:25:44.820Z,4.40
2024-02-15T01:28:47.509Z,4.40
2024-02-15T01:31:50.053Z,4.50
2024-02-15T01:34:55.208Z,4.50
2024-02-15T01:37:57.730Z,4.50
2024-02-15T01:40:59.928Z,4.60
2024-02-15T01:44:02.759Z,4.50
2024-02-15T01:47:05.665Z,4.60
2024-02-15T01:50:08.753Z,4.60
2024-02-15T01:53:12.586Z,4.60
2024-02-15T01:56:16.193Z,4.50
2024-02-15T01:59:19.206Z,4.50
2024-02-15T02:02:23.709Z,4.50
2024-02-15T02:05:26.919Z,4.60
2024-02-15T02:08:29.317Z,4.60
2024-02-15T02:11:31.562Z,4.60
2024-02-15T02:14:33.958Z,4.60
2024-02-15T02:17:36.716Z,4.60
2024-02-15T02:20:39.306Z,4.50
2024-02-15T02:23:41.768Z,4.50
2024-02-15T02:26:44.913Z,4.50
2024-02-15T02:29:47.544Z,4.50
2024-02-15T02:32:50.253Z,4.50
2024-02-15T02:35:52.447Z,4.50
2024-02-15T02:38:54.814Z,4.40
2024-02-15T02:41:57.229Z,4.30
2024-02-15T02:44:59.593Z,4.20
2024-02-15T02:48:01.954Z,4.00
2024-02-15T02:51:04.788Z,3.90
2024-02-15T02:54:07.857Z,3.70
2024-02-15T02:57:10.472Z,3.50
2024-02-15T03:00:16.356Z,3.40
2024-02-15T03:03:24.047Z,3.30
2024-02-15T03:06:26.565Z,3.20
2024-02-15T03:09:30.576Z,3.00
2024-02-15T03:12:32.997Z,2.80
2024-02-15T03:15:35.565Z,2.80
2024-02-15T03:18:37.826Z,2.80
2024-02-15T03:21:40.053Z,2.80
2024-02-15T03:24:42.610Z,2.80
2024-02-15T03:27:44.645Z,2.80
2024-02-15T03:30:47.353Z,2.80
2024-02-15T03:33:51.042Z,2.80
2024-02-15T03:36:55.128Z,2.80
2024-02-15T03:39:57.221Z,2.90
2024-02-15T03:42:59.737Z,2.90
2024-02-15T03:46:02.022Z,3.00
2024-02-15T03:49:04.154Z,3.10
2024-02-15T03:52:06.617Z,3.10
2024-02-15T03:55:09.163Z,3.20
2024-02-15T03:58:11.611Z,3.30
2024-02-15T04:01:16.501Z,3.30
2024-02-15T04:04:18.984Z,3.40
2024-02-15T04:07:21.313Z,3.40
2024-02-15T04:10:24.395Z,3.40
2024-02-15T04:13:26.686Z,3.50
2024-02-15T04:16:29.892Z,3.50
2024-02-15T04:19:35.343Z,3.60
2024-02-15T04:22:43.841Z,3.70
2024-02-15T04:25:52.130Z,3.70
2024-02-15T04:28:54.944Z,3.80
2024-02-15T04:31:57.800Z,4.10
2024-02-15T04:35:00.152Z,4.60
2024-02-15T04:38:02.670Z,4.80
2024-02-15T04:41:10.941Z,4.60
2024-02-15T04:44:13.332Z,4.60
2024-02-15T04:47:15.971Z,4.70
2024-02-15T04:50:19.739Z,4.80
2024-02-15T04:53:22.543Z,5.10
2024-02-15T04:56:25.148Z,5.10
2024-02-15T04:59:27.565Z,4.90
2024-02-15T05:02:29.893Z,4.70
2024-02-15T05:05:32.594Z,4.60
2024-02-15T05:08:36.258Z,4.40
2024-02-15T05:11:49.469Z,4.40
2024-02-15T05:14:52.156Z,4.40
2024-02-15T05:17:55.474Z,4.50
2024-02-15T05:20:58.580Z,4.50
2024-02-15T05:24:00.840Z,4.30
2024-02-15T05:27:03.035Z,4.20
2024-02-15T05:30:08.043Z,4.10
2024-02-15T05:33:11.894Z,3.90
2024-02-15T05:36:21.383Z,3.70
2024-02-15T05:39:24.329Z,3.70
2024-02-15T05:42:28.151Z,3.60
2024-02-15T05:45:34.734Z,3.60
2024-02-15T05:48:38.622Z,3.60
2024-02-15T05:51:42.292Z,3.50
2024-02-15T05:54:46.900Z,3.40
2024-02-15T05:57:49.120Z,3.20
2024-02-15T06:00:51.846Z,3.10
2024-02-15T06:03:56.845Z,3.00
2024-02-15T06:07:02.105Z,2.90
2024-02-15T06:10:05.399Z,2.80
2024-02-15T06:13:10.634Z,2.90
2024-02-15T06:16:12.736Z,2.80
2024-02-15T06:19:16.095Z,2.80
2024-02-15T06:22:18.460Z,2.80
2024-02-15T06:25:22.948Z,2.60
2024-02-15T06:28:44.908Z,2.50
2024-02-15T06:32:05.911Z,2.40
2024-02-15T06:35:26.792Z,2.50
2024-02-15T06:38:47.738Z,2.50
2024-02-15T06:41:49.903Z,2.50
2024-02-15T06:44:52.466Z,2.60
2024-02-15T06:47:54.976Z,2.70
2024-02-15T06:50:58.243Z,2.80
2024-02-15T06:54:00.651Z,2.80
2024-02-15T06:57:05.617Z,2.90
2024-02-15T07:00:09.707Z,3.00
2024-02-15T07:03:12.496Z,3.00
2024-02-15T07:06:16.012Z,3.10
2024-02-15T07:09:21.820Z,3.30
2024-02-15T07:12:24.407Z,3.40
2024-02-15T07:15:26.834Z,3.60
2024-02-15T07:18:30.095Z,3.70
2024-02-15T07:21:33.150Z,3.90
2024-02-15T07:24:36.662Z,4.00
2024-02-15T07:27:40.050Z,4.30
2024-02-15T07:30:42.383Z,4.40
2024-02-15T07:33:44.648Z,4.60
2024-02-15T07:36:47.941Z,5.00
2024-02-15T07:39:50.420Z,5.20
2024-02-15T07:42:53.271Z,5.50
2024-02-15T07:45:55.468Z,5.80
2024-02-15T07:48:58.680Z,6.10
2024-02-15T07:52:01.718Z,6.30
2024-02-15T07:55:09.138Z,6.60
2024-02-15T07:58:11.572Z,7.00
2024-02-15T08:01:15.061Z,7.60
2024-02-15T08:04:18.959Z,8.20
2024-02-15T08:07:22.010Z,9.00
2024-02-15T08:10:24.478Z,9.90
2024-02-15T08:13:30.406Z,10.50
2024-02-15T08:16:34.901Z,11.20
2024-02-15T08:19:38.312Z,11.90
2024-02-15T08:22:41.308Z,12.60
2024-02-15T08:25:43.503Z,13.10
2024-02-15T08:28:45.627Z,13.70
2024-02-15T08:31:50.140Z,14.20
2024-02-15T08:34:52.540Z,14.30
2024-02-15T08:37:55.646Z,14.30
2024-02-15T08:40:57.971Z,14.70
2024-02-15T08:44:01.874Z,14.70
2024-02-15T08:47:06.137Z,15.10
2024-02-15T08:50:12.218Z,15.40
2024-02-15T08:53:16.622Z,15.80
2024-02-15T08:56:18.873Z,15.60
2024-02-15T08:59:21.593Z,15.80
2024-02-15T09:02:23.840Z,16.00
2024-02-15T09:05:26.395Z,15.20
2024-02-15T09:08:29.581Z,15.30
2024-02-15T09:11:32.064Z,14.90
2024-02-15T09:14:34.973Z,15.40
2024-02-15T09:17:40.773Z,15.60
2024-02-15T09:20:46.225Z,15.20
2024-02-15T09:23:50.046Z,15.30
2024-02-15T09:26:53.694Z,16.30
2024-02-15T09:29:57.069Z,16.70
2024-02-15T09:32:59.345Z,16.00
2024-02-15T09:36:01.956Z,15.10
2024-02-15T09:39:04.266Z,14.60
2024-02-15T09:42:06.917Z,14.90
2024-02-15T09:45:13.879Z,14.20
2024-02-15T09:48:19.476Z,14.40
2024-02-15T09:51:22.868Z,13.90
2024-02-15T09:54:25.794Z,13.60
2024-02-15T09:57:28.764Z,13.90
2024-02-15T10:00:31.175Z,14.00
2024-02-15T10:03:34.711Z,13.70
2024-02-15T10:06:37.017Z,13.70
2024-02-15T10:09:39.752Z,13.70
2024-02-15T10:12:42.091Z,13.50
2024-02-15T10:15:46.244Z,13.60
2024-02-15T10:18:49.209Z,14.00
2024-02-15T10:21:58.638Z,14.70
2024-02-15T10:25:14.643Z,15.90
2024-02-15T10:28:24.860Z,15.60
2024-02-15T10:31:27.632Z,14.80
2024-02-15T10:34:31.723Z,14.70
2024-02-15T10:37:34.031Z,15.00
2024-02-15T10:40:36.975Z,15.00
2024-02-15T10:43:41.003Z,14.60
2024-02-15T10:46:44.481Z,14.10
2024-02-15T10:49:48.727Z,13.90
2024-02-15T10:53:00.333Z,13.90
2024-02-15T10:56:07.940Z,14.40
2024-02-15T10:59:21.160Z,14.50
2024-02-15T11:02:37.916Z,15.10
2024-02-15T11:05:41.699Z,15.70
2024-02-15T11:08:45.962Z,16.60
2024-02-15T11:11:52.132Z,15.80
2024-02-15T11:14:55.460Z,15.50
2024-02-15T11:17:58.927Z,15.60
2024-02-15T11:21:01.516Z,15.80
2024-02-15T11:24:30.480Z,16.20
2024-02-15T11:27:33.291Z,16.80
2024-02-15T11:30:35.835Z,17.60
2024-02-15T11:33:39.001Z,17.60
2024-02-15T11:36:44.005Z,17.50
2024-02-15T11:39:48.253Z,16.40
2024-02-15T11:42:54.764Z,15.80
2024-02-15T11:46:02.088Z,15.50
2024-02-15T11:49:05.981Z,15.60
2024-02-15T11:52:12.561Z,15.90
2024-02-15T11:55:20.264Z,16.10
2024-02-15T11:58:30.215Z,16.50
2024-02-15T12:01:51.384Z,16.30
2024-02-15T12:05:12.523Z,16.60
2024-02-15T12:08:33.620Z,16.80
2024-02-15T12:11:54.941Z,17.00
2024-02-15T12:15:25.468Z,17.00
2024-02-15T12:18:47.537Z,17.20
2024-02-15T12:21:50.814Z,18.00
2024-02-15T12:25:01.793Z,17.90
2024-02-15T12:28:05.895Z,17.00
2024-02-15T12:31:11.148Z,16.90
2024-02-15T12:34:14.845Z,17.10
2024-02-15T12:37:20.022Z,16.80
2024-02-15T12:40:23.446Z,17.10
2024-02-15T12:43:27.914Z,17.30
2024-02-15T12:46:30.388Z,17.10
2024-02-15T12:49:33.806Z,17.00
2024-02-15T12:52:38.282Z,17.40
2024-02-15T12:55:41.780Z,17.10
2024-02-15T12:58:44.400Z,17.00
2024-02-15T13:01:49.920Z,16.80
2024-02-15T13:04:52.093Z,17.50
2024-02-15T13:08:04.709Z,17.60
2024-02-15T13:11:07.022Z,17.30
2024-02-15T13:14:11.733Z,17.50
2024-02-15T13:17:14.015Z,18.00
2024-02-15T13:20:16.586Z,17.80
2024-02-15T13:23:26.462Z,17.80
2024-02-15T13:26:29.502Z,17.40
2024-02-15T13:29:33.989Z,17.70
2024-02-15T13:32:40.271Z,17.70
2024-02-15T13:35:43.217Z,17.40
2024-02-15T13:38:45.468Z,17.40
2024-02-15T13:41:48.650Z,17.50
2024-02-15T13:44:51.638Z,18.20
2024-02-15T13:47:57.601Z,18.20
2024-02-15T13:51:00.323Z,18.10
2024-02-15T13:54:02.655Z,18.20
2024-02-15T13:57:04.907Z,17.50
2024-02-15T14:00:07.700Z,17.20
2024-02-15T14:03:11.400Z,17.20
2024-02-15T14:06:14.270Z,17.60
2024-02-15T14:09:18.453Z,17.70
2024-02-15T14:12:20.945Z,18.30
2024-02-15T14:15:23.518Z,17.60
2024-02-15T14:18:25.881Z,17.90
2024-02-15T14:21:28.091Z,17.70
2024-02-15T14:24:30.162Z,17.80
2024-02-15T14:27:33.453Z,17.60
2024-02-15T14:30:55.093Z,18.20
2024-02-15T14:33:57.526Z,17.70
2024-02-15T14:37:01.153Z,18.10
2024-02-15T14:40:06.146Z,18.40
2024-02-15T14:43:09.117Z,17.90
2024-02-15T14:46:11.616Z,17.90
2024-02-15T14:49:13.983Z,17.90
2024-02-15T14:52:16.530Z,17.80
2024-02-15T14:55:20.215Z,17.90
2024-02-15T14:58:23.816Z,17.80
2024-02-15T15:01:26.635Z,17.80
2024-02-15T15:04:36.487Z,17.50
2024-02-15T15:07:57.688Z,17.40
2024-02-15T15:11:18.528Z,17.30
2024-02-15T15:14:20.783Z,17.10
2024-02-15T15:17:23.018Z,16.50
2024-02-15T15:20:27.417Z,16.60
2024-02-15T15:23:32.977Z,16.30
2024-02-15T15:26:35.534Z,16.50
2024-02-15T15:29:38.005Z,16.40
2024-02-15T15:32:41.330Z,16.20
2024-02-15T15:35:43.906Z,16.40
2024-02-15T15:38:46.746Z,16.50
2024-02-15T15:41:49.463Z,15.90
2024-02-15T15:44:52.044Z,15.50
2024-02-15T15:47:54.549Z,15.40
2024-02-15T15:51:00.670Z,15.30
2024-02-15T15:54:05.395Z,14.60
2024-02-15T15:57:07.615Z,13.80
2024-02-15T16:00:14.206Z,13.20
2024-02-15T16:03:16.659Z,12.70
2024-02-15T16:06:19.837Z,12.10
2024-02-15T16:09:22.299Z,11.70
2024-02-15T16:12:24.630Z,11.30
2024-02-15T16:15:26.917Z,11.00
2024-02-15T16:18:29.421Z,10.60
2024-02-15T16:21:31.823Z,10.40
2024-02-15T16:24:38.989Z,10.10
2024-02-15T16:27:42.124Z,9.90
2024-02-15T16:30:45.568Z,9.70
2024-02-15T16:33:48.019Z,9.50
2024-02-15T16:36:50.905Z,9.20
2024-02-15T16:39:53.633Z,8.80
2024-02-15T16:42:58.883Z,8.60
2024-02-15T16:46:01.109Z,8.50
2024-02-15T16:49:03.430Z,8.20
2024-02-15T16:52:06.398Z,8.00
2024-02-15T16:55:08.767Z,7.90
2024-02-15T16:58:11.568Z,7.80
2024-02-15T17:01:13.950Z,7.80
2024-02-15T17:04:17.851Z,7.60
2024-02-15T17:07:20.204Z,7.50
2024-02-15T17:10:22.735Z,7.20
2024-02-15T17:13:24.849Z,7.00
2024-02-15T17:16:28.020Z,6.90
2024-02-15T17:19:30.256Z,6.80
2024-02-15T17:22:32.457Z,6.70
2024-02-15T17:25:34.665Z,6.60
2024-02-15T17:28:38.505Z,6.50
2024-02-15T17:31:42.503Z,6.40
2024-02-15T17:34:45.053Z,6.30
2024-02-15T17:37:47.200Z,6.20
2024-02-15T17:40:50.642Z,6.00
2024-02-15T17:43:57.364Z,5.80
2024-02-15T17:47:01.634Z,5.70
2024-02-15T17:50:03.822Z,5.70
2024-02-15T17:53:05.852Z,5.70
2024-02-15T17:56:08.505Z,5.60
2024-02-15T17:59:12.226Z,5.50
2024-02-15T18:02:14.979Z,5.50
2024-02-15T18:05:18.519Z,5.40
2024-02-15T18:08:21.042Z,5.30
2024-02-15T18:11:23.650Z,5.20
2024-02-15T18:14:25.980Z,5.10
2024-02-15T18:17:28.103Z,5.00
2024-02-15T18:20:31.558Z,5.00
2024-02-15T18:23:34.384Z,4.90
2024-02-15T18:26:36.452Z,4.80
2024-02-15T18:29:39.027Z,4.70
2024-02-15T18:32:41.686Z,4.60
2024-02-15T18:35:47.678Z,4.50
2024-02-15T18:38:49.810Z,4.30
2024-02-15T18:41:52.480Z,4.20
2024-02-15T18:44:54.828Z,4.20
2024-02-15T18:47:59.541Z,4.10
2024-02-15T18:51:01.761Z,4.10
2024-02-15T18:54:03.941Z,4.00
2024-02-15T18:57:06.576Z,4.00
2024-02-15T19:00:23.414Z,4.00
2024-02-15T19:03:33.936Z,4.00
2024-02-15T19:06:41.349Z,4.00
2024-02-15T19:09:43.698Z,4.00
2024-02-15T19:12:45.831Z,4.00
2024-02-15T19:15:51.013Z,4.00
2024-02-15T19:18:54.979Z,4.00
2024-02-15T19:21:57.195Z,4.00
2024-02-15T19:24:59.256Z,3.90
2024-02-15T19:28:06.560Z,3.90
2024-02-15T19:31:08.863Z,3.90
2024-02-15T19:34:11.097Z,3.90
2024-02-15T19:37:15.837Z,3.90
2024-02-15T19:40:20.327Z,4.00
2024-02-15T19:43:23.547Z,4.00
2024-02-15T19:46:34.705Z,4.10
2024-02-15T19:49:37.079Z,4.10
2024-02-15T19:52:39.947Z,4.20
2024-02-15T19:55:43.627Z,4.20
2024-02-15T19:58:46.218Z,4.20
2024-02-15T20:01:49.071Z,4.30
2024-02-15T20:04:51.553Z,4.30
2024-02-15T20:07:54.097Z,4.40
2024-02-15T20:10:57.360Z,4.40
2024-02-15T20:14:00.831Z,4.50
2024-02-15T20:17:04.010Z,4.50
2024-02-15T20:20:06.964Z,4.60
2024-02-15T20:23:09.272Z,4.80
2024-02-15T20:26:11.439Z,5.00
2024-02-15T20:29:13.649Z,5.10
2024-02-15T20:32:19.738Z,5.20
2024-02-15T20:35:23.558Z,5.60
2024-02-15T20:38:29.541Z,5.80
2024-02-15T20:41:32.845Z,6.30
2024-02-15T20:44:35.158Z,6.50
2024-02-15T20:47:39.608Z,6.40
2024-02-15T20:50:42.478Z,6.40
2024-02-15T20:53:46.515Z,6.30
2024-02-15T20:56:50.770Z,6.30
2024-02-15T20:59:54.661Z,6.00
2024-02-15T21:02:56.986Z,5.70
2024-02-15T21:05:59.323Z,5.40
2024-02-15T21:09:02.330Z,5.40
2024-02-15T21:12:10.496Z,5.50
2024-02-15T21:15:14.319Z,5.70
2024-02-15T21:18:16.531Z,5.40
2024-02-15T21:21:19.106Z,5.40
2024-02-15T21:24:21.807Z,5.50
2024-02-15T21:27:24.437Z,5.90
2024-02-15T21:30:30.115Z,6.30
2024-02-15T21:33:32.605Z,6.50
2024-02-15T21:36:35.394Z,6.60
2024-02-15T21:39:42.791Z,6.50
2024-02-15T21:42:45.195Z,6.30
2024-02-15T21:45:47.323Z,6.00
2024-02-15T21:48:51.692Z,5.70
2024-02-15T21:51:54.165Z,5.70
2024-02-15T21:54:57.179Z,5.30
2024-02-15T21:57:59.444Z,5.00
2024-02-15T22:01:01.979Z,4.80
2024-02-15T22:04:05.069Z,4.70
2024-02-15T22:07:08.676Z,4.50
2024-02-15T22:10:11.324Z,4.40
2024-02-15T22:13:15.442Z,4.30
2024-02-15T22:16:18.027Z,4.30
2024-02-15T22:19:20.667Z,4.20
2024-02-15T22:22:23.046Z,4.10
2024-02-15T22:25:25.368Z,4.10
2024-02-15T22:28:27.547Z,4.00
2024-02-15T22:31:29.836Z,3.90
2024-02-15T22:34:32.932Z,3.80
2024-02-15T22:37:35.312Z,3.70
2024-02-15T22:40:37.381Z,3.70
2024-02-15T22:43:40.561Z,3.70
2024-02-15T22:46:49.933Z,3.60
2024-02-15T22:49:52.632Z,3.60
2024-02-15T22:52:55.152Z,3.60
2024-02-15T22:55:57.592Z,3.60
2024-02-15T22:58:59.948Z,3.60
2024-02-15T23:02:02.267Z,3.50
2024-02-15T23:05:05.847Z,3.40
2024-02-15T23:08:08.773Z,3.40
2024-02-15T23:11:11.774Z,3.30
2024-02-15T23:14:14.071Z,3.30
2024-02-15T23:17:16.449Z,3.30
2024-02-15T23:20:19.691Z,3.20
2024-02-15T23:23:23.586Z,3.20
2024-02-15T23:26:25.681Z,3.20
2024-02-15T23:29:28.411Z,3.20
2024-02-15T23:32:31.650Z,3.30
2024-02-15T23:35:34.016Z,3.20
2024-02-15T23:38:55.105Z,3.20
2024-02-15T23:41:57.582Z,3.20
2024-02-15T23:44:59.737Z,3.10
2024-02-15T23:48:05.820Z,3.10
2024-02-15T23:51:09.702Z,3.10
2024-02-15T23:54:13.844Z,3.00
2024-02-15T23:57:16.279Z,3.00
